Roanoke Regional Woodrum Field
KROA : now visible

Airfield :











YOU CAN JOIN US ON...

 
LOGIN :

Register | Disclaimer

   EN    FR    IT 

 









Legend :    VFR   Marginal VFR   IFR   Intensive IFR   Very Intensive IFR
Visi :
Ceiling :
>= 8 km
>= 3000ft
5 to 8 km
1000 to 3000 ft
1500m to 5 km
500 to 1000 ft
800 to 1500m
200 to 500 ft
< 800m
< 200 ft
Symbols :   Thunderstorms  Fog  Heavy snow  Heavy precipitations  Wind > 20 kt






- Airport Elevation : 1175 ft
- IATA code : ROA


KROA - Roanoke Regional Woodrum Field

CURRENT METAR :
  • 230054Z 32005KT 10SM CLR 10/03 A3005 RMK AO2 SLP174 T01000028

EXPIRED METARs :
  • 222354Z 29015KT 10SM CLR 11/05 A3002 RMK AO2 RAB29E36 SLP161 P0000 60000 T01110050 10156 20106 51010
  • 222254Z 30010KT 10SM SCT035 12/06 A3001 RMK AO2 SLP160 T01170056

TAF KROA
Valid from the 23 at 00:00 until the 24 at 00:00 UTC


222340Z 2300/2324 32007KT P6SM BKN035
FM231000 01005KT 6SM -RA BR BKN030 OVC100
FM231700 08008KT 4SM -RA BR OVC006
FM232300 11006KT 4SM -DZ BR OVC004



MET'MAP, your aeronautical weather chart ! - Copyright ORBIFLY December 2007 - Disclaimer

ORBIFLY MET'MAP TEAM :

Programming & Development : Alexandra Zaïnal
Concept & Development : Baudouin d'Aumeries
Co-Development & Prog : Marc-Olivier Méhu
Technical & hardware support : Manuel Goepfert

Contact : metmap@orbifly.com




SOURCES & CREDITS :

   NOAA       Earth
Advisory